Ainazi, Latvia

9:04 AM EEST on October 22, 2014 (GMT +0300)
Parnu | Change Station
CLOSE
Current Station
Airport
Location: PARNU,
Elevation: 46 ft
Nearby Weather Stations

Elev 46 ft 58.42 °N, 24.47 °E | Updated 14 minutes ago

Mostly Cloudy
Mostly Cloudy
30 °F
Feels Like 21 °F
N
12
Wind Variable Wind from East

Today
High -- | Low -- °F
--% Chance of Precip.
Yesterday
High -- | Low -- °F
Precip. -- in
8:12 AM 6:00 PM
Waning Crescent, 3% visible
Pressure 30.01 in
Visibility 6.2 miles
Clouds Mostly Cloudy 2600 ft
Windchill 21 °F
Dew Point 21 °F
Humidity 69%
Rainfall 0.00 in
Snow Depth Not available.
UV 0 out of 12
Pollen Not available.
Air Quality Not available.
Flu Activity Not available.
METAR EEPU 220550Z 08010KT 050V120 9999 BKN026 M01/M06 Q1016

More Conditions Fewer Conditions

Pressure 30.01 in
Visibility 6.2 miles
Clouds Mostly Cloudy 2600 ft
Windchill 21 °F
Dew Point 21 °F
Humidity 69%
Rainfall 0.00 in
Snow Depth Not available.
UV 0 out of 12
Pollen Not available.
Air Quality Not available.
Flu Activity Not available.
METAR EEPU 220550Z 08010KT 050V120 9999 BKN026 M01/M06 Q1016

More Conditions Fewer Conditions

10-Day Weather Forecast

Almanac

Astronomy

Oct. 22, 2014 Rise Set
Actual Time 8:12 AM EEST 6:00 PM EEST
Civil Twilight 7:32 AM EEST 6:40 PM EEST
Nautical Twilight 6:46 AM EEST 7:26 PM EEST
Astronomical Twilight 6:01 AM EEST 8:11 PM EEST
Moon 6:16 AM EEST 5:30 PM EEST
Length of Visible Light 11h 08m
Length of Day
9h 47m
Tomorrow will be 4m 51s shorter.
Waning Crescent, 3% of the Moon is Illuminated
Today
Waning Crescent
Oct 23
New
Oct 30
First Quarter
Nov 6
Full
Nov 14
Last Quarter

Yesterday's Extremes

Country Highs Country Lows

Community

WunderPhotos

Upload Photos

1,763,887 photos uploaded!

Nearby

Snow Depth

Not available.

Earthquake Activity

City Distance Mag. Time & Date
No recent earthquake activity has been reported nearby.
Minimum magnitude displayed is 2.5.

Coastal Water Temperatures

Place Temperature
No Stations Reporting

Nearby Weather Stations